createdAt,value
2022-11-05T00:01:40.187Z,10.25
2022-11-05T00:04:30.602Z,10.70
2022-11-05T00:09:43.613Z,9.52
2022-11-05T00:12:30.100Z,9.98
2022-11-05T00:15:15.471Z,9.50
2022-11-05T00:17:44.237Z,8.52
2022-11-05T00:20:13.445Z,9.20
2022-11-05T00:22:58.515Z,9.75
2022-11-05T00:25:26.360Z,8.27
2022-11-05T00:27:54.617Z,7.28
2022-11-05T00:30:23.780Z,6.95
2022-11-05T00:32:53.339Z,6.25
2022-11-05T00:35:21.504Z,5.88
2022-11-05T00:37:50.578Z,6.72
2022-11-05T00:40:18.417Z,6.70
2022-11-05T00:43:03.555Z,6.25
2022-11-05T00:45:31.440Z,6.63
2022-11-05T00:48:32.313Z,6.40
2022-11-05T00:50:59.690Z,6.00
2022-11-05T00:53:27.092Z,6.35
2022-11-05T00:55:54.537Z,6.10
2022-11-05T00:58:22.605Z,6.28
2022-11-05T01:00:51.037Z,6.68
2022-11-05T01:03:20.869Z,6.05
2022-11-05T01:05:49.101Z,5.47
2022-11-05T01:08:17.194Z,5.68
2022-11-05T01:10:45.129Z,6.47
2022-11-05T01:13:13.601Z,5.65
2022-11-05T01:15:41.177Z,5.32
2022-11-05T01:18:08.809Z,6.25
2022-11-05T01:20:37.515Z,5.65
2022-11-05T01:23:08.945Z,6.13
2022-11-05T01:25:40.488Z,6.20
2022-11-05T01:28:09.495Z,6.22
2022-11-05T01:30:37.234Z,6.75
2022-11-05T01:33:04.703Z,6.10
2022-11-05T01:35:32.140Z,6.18
2022-11-05T01:38:00.877Z,5.65
2022-11-05T01:40:28.229Z,5.68
2022-11-05T01:42:55.612Z,5.40
2022-11-05T01:45:24.517Z,5.63
2022-11-05T01:48:09.674Z,4.97
2022-11-05T01:50:41.426Z,6.03
2022-11-05T01:53:13.998Z,5.13
2022-11-05T01:55:43.007Z,5.25
2022-11-05T01:58:12.892Z,5.28
2022-11-05T02:00:40.905Z,5.90
2022-11-05T02:03:08.692Z,5.45
2022-11-05T02:05:36.479Z,5.40
2022-11-05T02:08:04.125Z,5.72
2022-11-05T02:10:33.038Z,6.18
2022-11-05T02:13:00.698Z,5.25
2022-11-05T02:15:35.198Z,5.28
2022-11-05T02:18:11.044Z,5.55
2022-11-05T02:20:42.400Z,5.38
2022-11-05T02:23:27.813Z,6.13
2022-11-05T02:26:13.120Z,5.45
2022-11-05T02:28:56.317Z,5.03
2022-11-05T02:31:27.158Z,6.57
2022-11-05T02:33:56.886Z,5.18
2022-11-05T02:36:29.058Z,5.40
2022-11-05T02:39:03.637Z,5.68
2022-11-05T02:41:32.005Z,5.18
2022-11-05T02:44:04.098Z,6.93
2022-11-05T02:46:35.747Z,5.97
2022-11-05T02:49:09.718Z,5.50
2022-11-05T02:51:40.185Z,6.38
2022-11-05T02:54:11.596Z,6.63
2022-11-05T02:56:40.986Z,6.25
2022-11-05T02:59:08.545Z,6.47
2022-11-05T03:01:38.452Z,6.68
2022-11-05T03:04:07.973Z,6.65
2022-11-05T03:06:42.094Z,7.05
2022-11-05T03:09:22.917Z,7.28
2022-11-05T03:11:56.849Z,6.75
2022-11-05T03:14:29.316Z,7.03
2022-11-05T03:17:01.055Z,6.75
2022-11-05T03:19:33.824Z,7.78
2022-11-05T03:22:03.485Z,6.88
2022-11-05T03:24:32.785Z,7.68
2022-11-05T03:27:01.598Z,6.82
2022-11-05T03:29:31.190Z,7.28
2022-11-05T03:32:01.779Z,7.35
2022-11-05T03:34:32.174Z,7.45
2022-11-05T03:37:00.161Z,6.30
2022-11-05T03:39:30.335Z,6.97
2022-11-05T03:41:58.477Z,7.07
2022-11-05T03:44:27.945Z,6.45
2022-11-05T03:46:57.814Z,6.53
2022-11-05T03:49:29.972Z,6.38
2022-11-05T03:52:00.850Z,6.50
2022-11-05T03:54:28.421Z,6.93
2022-11-05T03:57:00.348Z,5.90
2022-11-05T03:59:28.455Z,5.47
2022-11-05T04:01:56.048Z,6.13
2022-11-05T04:04:23.593Z,6.13
2022-11-05T04:07:09.950Z,6.00
2022-11-05T04:09:54.912Z,6.18
2022-11-05T04:12:39.786Z,6.07
2022-11-05T04:15:07.715Z,6.72
2022-11-05T04:17:34.231Z,5.40
2022-11-05T04:20:18.881Z,6.20
2022-11-05T04:23:04.957Z,6.05
2022-11-05T04:25:32.316Z,5.97
2022-11-05T04:28:00.175Z,5.70
2022-11-05T04:30:26.682Z,5.80
2022-11-05T04:32:57.901Z,6.20
2022-11-05T04:37:53.940Z,5.60
2022-11-05T04:40:21.264Z,5.88
2022-11-05T04:42:48.659Z,5.00
2022-11-05T04:45:16.150Z,6.53
2022-11-05T04:47:43.590Z,5.82
2022-11-05T04:50:12.126Z,5.22
2022-11-05T04:52:39.679Z,6.05
2022-11-05T04:55:08.813Z,4.93
2022-11-05T04:57:36.249Z,5.43
2022-11-05T05:00:03.681Z,6.72
2022-11-05T05:02:31.053Z,5.65
2022-11-05T05:04:58.455Z,5.55
2022-11-05T05:07:25.837Z,5.15
2022-11-05T05:09:54.859Z,5.13
2022-11-05T05:12:23.971Z,5.28
2022-11-05T05:14:51.331Z,5.65
2022-11-05T05:17:18.797Z,5.40
2022-11-05T05:20:04.138Z,5.38
2022-11-05T05:22:31.517Z,5.07
2022-11-05T05:24:59.917Z,5.03
2022-11-05T05:27:30.249Z,5.05
2022-11-05T05:29:57.809Z,4.82
2022-11-05T05:32:25.626Z,5.57
2022-11-05T05:34:53.452Z,5.47
2022-11-05T05:37:21.081Z,5.70
2022-11-05T05:39:48.746Z,5.65
2022-11-05T05:42:16.137Z,5.28
2022-11-05T05:44:44.881Z,5.55
2022-11-05T05:47:12.208Z,5.57
2022-11-05T05:49:39.588Z,5.25
2022-11-05T05:52:07.008Z,5.93
2022-11-05T05:54:39.727Z,4.63
2022-11-05T05:57:09.760Z,6.00
2022-11-05T05:59:37.138Z,5.15
2022-11-05T06:02:05.996Z,4.72
2022-11-05T06:04:33.416Z,4.72
2022-11-05T06:07:00.765Z,4.63
2022-11-05T06:09:28.097Z,5.05
2022-11-05T06:11:55.456Z,4.28
2022-11-05T06:14:22.870Z,4.78
2022-11-05T06:16:50.226Z,4.88
2022-11-05T06:19:18.981Z,4.20
2022-11-05T06:21:46.329Z,4.53
2022-11-05T06:24:13.796Z,4.32
2022-11-05T06:26:43.146Z,4.65
2022-11-05T06:29:10.925Z,4.40
2022-11-05T06:31:38.257Z,5.05
2022-11-05T06:34:05.564Z,4.32
2022-11-05T06:36:34.463Z,4.80
2022-11-05T06:39:01.817Z,4.82
2022-11-05T06:41:29.200Z,4.20
2022-11-05T06:43:56.559Z,5.55
2022-11-05T06:46:23.976Z,5.00
2022-11-05T06:48:51.893Z,3.72
2022-11-05T06:51:19.284Z,4.45
2022-11-05T06:53:48.018Z,5.32
2022-11-05T06:56:15.382Z,4.28
2022-11-05T06:58:42.774Z,4.53
2022-11-05T07:01:10.960Z,4.75
2022-11-05T07:03:38.775Z,4.60
2022-11-05T07:06:07.104Z,4.18
2022-11-05T07:08:34.984Z,4.30
2022-11-05T07:11:03.838Z,4.40
2022-11-05T07:13:31.222Z,4.95
2022-11-05T07:15:58.872Z,4.55
2022-11-05T07:18:26.289Z,4.47
2022-11-05T07:20:53.708Z,4.03
2022-11-05T07:23:21.112Z,4.47
2022-11-05T07:25:48.476Z,4.55
2022-11-05T07:28:17.178Z,4.60
2022-11-05T07:30:44.702Z,5.28
2022-11-05T07:33:12.505Z,4.90
2022-11-05T07:35:40.342Z,5.30
2022-11-05T07:38:07.730Z,5.13
2022-11-05T07:40:35.034Z,5.55
2022-11-05T07:43:02.621Z,6.18
2022-11-05T07:45:31.856Z,4.68
2022-11-05T07:48:00.388Z,5.70
2022-11-05T07:50:28.667Z,5.85
2022-11-05T07:53:00.211Z,5.90
2022-11-05T07:55:27.574Z,5.45
2022-11-05T07:57:54.956Z,5.78
2022-11-05T08:00:23.108Z,5.28
2022-11-05T08:03:06.855Z,6.57
2022-11-05T08:05:36.488Z,6.28
2022-11-05T08:08:04.419Z,5.85
2022-11-05T08:10:32.440Z,6.38
2022-11-05T08:12:59.774Z,5.70
2022-11-05T08:15:27.150Z,6.43
2022-11-05T08:18:00.031Z,6.93
2022-11-05T08:20:27.479Z,5.85
2022-11-05T08:22:55.274Z,6.45
2022-11-05T08:25:22.661Z,5.90
2022-11-05T08:27:55.699Z,6.30
2022-11-05T08:30:23.073Z,5.95
2022-11-05T08:32:50.470Z,5.22
2022-11-05T08:35:20.231Z,5.95
2022-11-05T08:37:47.617Z,5.30
2022-11-05T08:40:14.983Z,5.82
2022-11-05T08:42:42.343Z,6.45
2022-11-05T08:45:10.246Z,5.53
2022-11-05T08:47:37.660Z,5.72
2022-11-05T08:50:05.181Z,6.20
2022-11-05T08:52:34.000Z,6.20
2022-11-05T08:55:01.375Z,5.80
2022-11-05T08:57:28.788Z,6.05
2022-11-05T08:59:56.323Z,5.60
2022-11-05T09:02:23.777Z,6.03
2022-11-05T09:04:51.220Z,5.53
2022-11-05T09:07:18.616Z,6.13
2022-11-05T09:09:47.304Z,5.15
2022-11-05T09:12:15.081Z,5.50
2022-11-05T09:14:42.403Z,5.22
2022-11-05T09:17:14.169Z,5.47
2022-11-05T09:19:41.585Z,5.47
2022-11-05T09:22:08.983Z,5.18
2022-11-05T09:24:36.354Z,5.28
2022-11-05T09:27:05.084Z,5.22
2022-11-05T09:29:32.448Z,5.28
2022-11-05T09:31:59.790Z,5.43
2022-11-05T09:34:27.325Z,4.90
2022-11-05T09:36:54.674Z,3.67
2022-11-05T09:39:22.038Z,4.70
2022-11-05T09:41:50.270Z,4.32
2022-11-05T09:44:20.936Z,4.22
2022-11-05T09:46:50.503Z,3.72
2022-11-05T09:49:24.369Z,4.07
2022-11-05T09:51:52.845Z,3.90
2022-11-05T09:54:21.314Z,3.70
2022-11-05T09:56:48.757Z,3.45
2022-11-05T09:59:18.363Z,4.00
2022-11-05T10:01:47.563Z,3.28
2022-11-05T10:04:17.790Z,2.97
2022-11-05T10:06:47.602Z,3.35
2022-11-05T10:09:18.959Z,2.35
2022-11-05T10:11:49.036Z,3.00
2022-11-05T10:14:19.049Z,3.55
2022-11-05T10:16:49.994Z,2.88
2022-11-05T10:19:22.027Z,2.10
2022-11-05T10:22:06.319Z,2.13
2022-11-05T10:24:34.434Z,2.58
2022-11-05T10:27:02.465Z,2.70
2022-11-05T10:29:32.441Z,2.42
2022-11-05T10:32:02.365Z,2.17
2022-11-05T10:34:30.945Z,1.67
2022-11-05T10:36:58.545Z,1.80
2022-11-05T10:39:27.619Z,2.20
2022-11-05T10:42:12.004Z,2.13
2022-11-05T10:44:42.277Z,2.05
2022-11-05T10:47:17.540Z,1.60
2022-11-05T10:49:50.065Z,2.10
2022-11-05T10:52:22.352Z,2.15
2022-11-05T10:54:52.013Z,1.10
2022-11-05T10:57:33.577Z,1.33
2022-11-05T11:00:24.074Z,1.33
2022-11-05T11:02:54.079Z,1.17
2022-11-05T11:05:22.951Z,1.25
2022-11-05T11:07:54.726Z,0.90
2022-11-05T11:10:22.742Z,0.85
2022-11-05T11:12:51.031Z,1.00
2022-11-05T11:15:23.428Z,1.33
2022-11-05T11:17:50.784Z,1.35
2022-11-05T11:20:27.287Z,1.40
2022-11-05T11:23:05.441Z,1.10
2022-11-05T11:25:37.532Z,1.00
2022-11-05T11:28:05.837Z,1.20
2022-11-05T11:30:33.772Z,1.20
2022-11-05T11:33:07.973Z,1.13
2022-11-05T11:35:38.588Z,1.05
2022-11-05T11:38:06.720Z,1.08
2022-11-05T11:40:35.515Z,1.67
2022-11-05T11:43:04.958Z,1.23
2022-11-05T11:45:33.833Z,0.88
2022-11-05T11:48:03.131Z,0.80
2022-11-05T11:50:35.179Z,0.90
2022-11-05T11:53:25.804Z,1.23
2022-11-05T11:56:06.355Z,0.90
2022-11-05T11:58:38.358Z,1.17
2022-11-05T12:01:13.110Z,0.77
2022-11-05T12:03:44.149Z,1.00
2022-11-05T12:06:15.605Z,1.02
2022-11-05T12:08:56.386Z,0.90
2022-11-05T12:11:30.330Z,1.10
2022-11-05T12:14:04.176Z,0.98
2022-11-05T12:16:41.749Z,0.90
2022-11-05T12:19:14.918Z,0.75
2022-11-05T12:21:52.922Z,1.15
2022-11-05T12:24:28.433Z,1.23
2022-11-05T12:27:00.791Z,1.08
2022-11-05T12:29:42.591Z,1.00
2022-11-05T12:32:23.357Z,1.00
2022-11-05T12:34:55.623Z,0.90
2022-11-05T12:37:27.944Z,0.98
2022-11-05T12:40:01.632Z,0.70
2022-11-05T12:42:35.868Z,1.25
2022-11-05T12:45:05.089Z,0.80
2022-11-05T12:47:38.861Z,0.75
2022-11-05T12:50:15.098Z,0.52
2022-11-05T12:52:51.120Z,0.90
2022-11-05T12:55:21.201Z,0.80
2022-11-05T12:57:50.190Z,0.70
2022-11-05T13:00:19.573Z,0.90
2022-11-05T13:02:51.768Z,0.90
2022-11-05T13:05:20.922Z,0.95
2022-11-05T13:07:50.623Z,1.33
2022-11-05T13:10:23.382Z,1.35
2022-11-05T13:12:58.057Z,0.95
2022-11-05T13:15:27.174Z,0.88
2022-11-05T13:17:56.214Z,0.50
2022-11-05T13:20:25.364Z,0.75
2022-11-05T13:22:56.369Z,0.90
2022-11-05T13:25:26.208Z,0.80
2022-11-05T13:27:55.794Z,1.02
2022-11-05T13:30:24.181Z,1.20
2022-11-05T13:32:54.858Z,0.80
2022-11-05T13:35:25.523Z,1.48
2022-11-05T13:38:13.002Z,1.00
2022-11-05T13:40:48.424Z,0.85
2022-11-05T13:43:21.251Z,0.82
2022-11-05T13:46:05.370Z,0.90
2022-11-05T13:48:48.050Z,0.75
2022-11-05T13:51:34.814Z,0.93
2022-11-05T13:54:26.045Z,1.17
2022-11-05T13:57:01.920Z,1.20
2022-11-05T13:59:36.615Z,0.88
2022-11-05T14:02:05.763Z,1.15
2022-11-05T14:04:34.970Z,1.17
2022-11-05T14:07:13.782Z,0.93
2022-11-05T14:09:41.239Z,1.23
2022-11-05T14:12:17.347Z,1.13
2022-11-05T14:14:45.711Z,1.00
2022-11-05T14:17:17.522Z,0.88
2022-11-05T14:19:52.689Z,1.20
2022-11-05T14:22:36.096Z,1.23
2022-11-05T14:25:24.251Z,0.90
2022-11-05T14:27:53.393Z,1.20
2022-11-05T14:30:41.086Z,0.77
2022-11-05T14:33:15.296Z,1.00
2022-11-05T14:35:43.255Z,0.90
2022-11-05T14:38:19.681Z,0.90
2022-11-05T14:40:47.784Z,1.75
2022-11-05T14:43:22.529Z,1.23
2022-11-05T14:45:54.434Z,0.90
2022-11-05T14:48:28.147Z,1.27
2022-11-05T14:50:55.867Z,0.88
2022-11-05T14:53:28.269Z,1.00
2022-11-05T14:56:00.824Z,0.95
2022-11-05T14:58:31.163Z,1.50
2022-11-05T15:00:58.996Z,1.20
2022-11-05T15:03:31.506Z,1.00
2022-11-05T15:06:05.567Z,1.02
2022-11-05T15:08:36.474Z,0.98
2022-11-05T15:13:35.280Z,1.58
2022-11-05T15:16:04.248Z,1.23
2022-11-05T15:18:34.315Z,1.25
2022-11-05T15:21:03.114Z,2.03
2022-11-05T15:23:34.896Z,1.38
2022-11-05T15:26:06.032Z,1.52
2022-11-05T15:28:36.716Z,1.98
2022-11-05T15:31:05.194Z,2.28
2022-11-05T15:33:33.043Z,1.83
2022-11-05T15:36:09.365Z,2.08
2022-11-05T15:38:37.004Z,1.50
2022-11-05T15:41:05.306Z,1.88
2022-11-05T15:43:32.819Z,1.70
2022-11-05T15:46:03.076Z,1.88
2022-11-05T15:48:31.006Z,1.45
2022-11-05T15:50:58.475Z,2.03
2022-11-05T15:56:24.233Z,2.72
2022-11-05T15:58:53.945Z,2.70
2022-11-05T16:01:24.425Z,2.42
2022-11-05T16:03:53.154Z,2.65
2022-11-05T16:06:20.797Z,2.75
2022-11-05T16:08:49.115Z,3.13
2022-11-05T16:11:23.709Z,2.50
2022-11-05T16:13:51.599Z,2.65
2022-11-05T16:16:35.774Z,2.63
2022-11-05T16:19:03.100Z,3.13
2022-11-05T16:21:30.444Z,3.00
2022-11-05T16:23:58.697Z,2.45
2022-11-05T16:27:02.226Z,3.00
2022-11-05T16:29:24.964Z,2.75
2022-11-05T16:31:54.621Z,3.50
2022-11-05T16:34:25.898Z,4.50
2022-11-05T16:36:54.977Z,5.45
2022-11-05T16:39:22.468Z,4.90
2022-11-05T16:41:49.873Z,4.03
2022-11-05T16:44:17.240Z,3.15
2022-11-05T16:46:45.811Z,2.67
2022-11-05T16:49:14.548Z,4.00
2022-11-05T16:51:41.936Z,3.95
2022-11-05T16:54:09.645Z,4.13
2022-11-05T16:56:37.188Z,4.25
2022-11-05T16:59:04.669Z,6.00
2022-11-05T17:01:32.772Z,7.30
2022-11-05T17:04:00.236Z,6.43
2022-11-05T17:06:28.930Z,7.30
2022-11-05T17:08:56.313Z,7.38
2022-11-05T17:11:23.660Z,10.25
2022-11-05T17:13:51.114Z,17.52
2022-11-05T17:16:18.639Z,14.55
2022-11-05T17:18:46.017Z,6.82
2022-11-05T17:21:14.100Z,7.78
2022-11-05T17:23:42.823Z,6.63
2022-11-05T17:26:11.033Z,5.28
2022-11-05T17:28:38.966Z,4.93
2022-11-05T17:31:09.122Z,4.60
2022-11-05T17:33:36.517Z,14.30
2022-11-05T17:36:06.150Z,5.60
2022-11-05T17:38:33.556Z,6.15
2022-11-05T17:41:02.640Z,4.65
2022-11-05T17:43:30.006Z,6.07
2022-11-05T17:46:03.088Z,7.47
2022-11-05T17:48:31.796Z,5.03
2022-11-05T17:50:59.126Z,4.97
2022-11-05T17:53:26.469Z,4.53
2022-11-05T17:55:53.852Z,4.38
2022-11-05T17:58:22.585Z,3.47
2022-11-05T18:00:49.939Z,3.80
2022-11-05T18:03:17.431Z,4.18
2022-11-05T18:05:44.838Z,3.20
2022-11-05T18:08:12.616Z,4.45
2022-11-05T18:10:40.584Z,3.80
2022-11-05T18:13:08.258Z,3.30
2022-11-05T18:15:40.879Z,3.13
2022-11-05T18:18:08.388Z,2.95
2022-11-05T18:20:35.848Z,3.50
2022-11-05T18:23:03.236Z,3.78
2022-11-05T18:25:30.682Z,4.07
2022-11-05T18:27:58.093Z,5.30
2022-11-05T18:30:25.486Z,5.63
2022-11-05T18:32:54.241Z,5.45
2022-11-05T18:35:21.662Z,4.65
2022-11-05T18:37:49.034Z,5.03
2022-11-05T18:40:16.445Z,5.65
2022-11-05T18:42:43.853Z,6.22
2022-11-05T18:45:11.723Z,6.82
2022-11-05T18:47:39.215Z,8.30
2022-11-05T18:50:09.224Z,8.48
2022-11-05T18:52:36.669Z,8.20
2022-11-05T18:55:04.204Z,7.38
2022-11-05T18:57:33.418Z,6.18
2022-11-05T19:00:00.841Z,5.93
2022-11-05T19:02:28.562Z,5.93
2022-11-05T19:05:26.931Z,5.85
2022-11-05T19:07:44.879Z,6.88
2022-11-05T19:10:12.292Z,7.57
2022-11-05T19:12:39.672Z,6.55
2022-11-05T19:15:08.003Z,6.88
2022-11-05T19:17:35.692Z,7.40
2022-11-05T19:20:03.431Z,7.22
2022-11-05T19:22:30.861Z,8.07
2022-11-05T19:24:59.546Z,7.95
2022-11-05T19:27:26.974Z,8.50
2022-11-05T19:29:54.420Z,10.20
2022-11-05T19:32:21.845Z,10.30
2022-11-05T19:34:49.238Z,9.23
2022-11-05T19:37:16.808Z,10.13
2022-11-05T19:39:44.221Z,7.63
2022-11-05T19:42:12.991Z,8.65
2022-11-05T19:44:40.746Z,10.30
2022-11-05T19:47:08.171Z,8.63
2022-11-05T19:49:35.511Z,8.45
2022-11-05T19:52:02.888Z,7.72
2022-11-05T19:54:30.292Z,9.45
2022-11-05T19:56:58.532Z,9.13
2022-11-05T19:59:27.430Z,11.10
2022-11-05T20:01:54.875Z,10.95
2022-11-05T20:04:22.431Z,10.65
2022-11-05T20:06:49.791Z,9.77
2022-11-05T20:09:22.108Z,9.70
2022-11-05T20:11:50.565Z,9.75
2022-11-05T20:14:17.959Z,9.05
2022-11-05T20:16:47.270Z,8.65
2022-11-05T20:19:15.516Z,8.25
2022-11-05T20:21:43.154Z,7.38
2022-11-05T20:24:11.696Z,7.72
2022-11-05T20:26:39.332Z,7.03
2022-11-05T20:29:06.678Z,7.35
2022-11-05T20:31:34.253Z,6.75
2022-11-05T20:34:03.021Z,6.82
2022-11-05T20:36:30.417Z,7.38
2022-11-05T20:38:58.633Z,7.85
2022-11-05T20:41:26.599Z,7.78
2022-11-05T20:43:54.302Z,7.90
2022-11-05T20:46:22.568Z,7.80
2022-11-05T20:48:50.310Z,7.85
2022-11-05T20:51:20.111Z,8.13
2022-11-05T20:53:47.778Z,7.45
2022-11-05T20:56:18.863Z,8.05
2022-11-05T20:58:46.348Z,8.10
2022-11-05T21:01:15.585Z,8.00
2022-11-05T21:03:43.350Z,8.88
2022-11-05T21:06:10.954Z,7.93
2022-11-05T21:08:39.782Z,7.72
2022-11-05T21:11:07.997Z,8.63
2022-11-05T21:13:35.950Z,7.60
2022-11-05T21:16:03.613Z,8.15
2022-11-05T21:18:32.047Z,7.70
2022-11-05T21:21:00.333Z,6.88
2022-11-05T21:23:28.027Z,7.55
2022-11-05T21:25:56.726Z,6.18
2022-11-05T21:28:24.345Z,6.35
2022-11-05T21:30:51.741Z,5.70
2022-11-05T21:33:19.292Z,6.13
2022-11-05T21:35:47.471Z,6.03
2022-11-05T21:38:15.724Z,5.53
2022-11-05T21:40:43.516Z,5.30
2022-11-05T21:43:12.265Z,5.38
2022-11-05T21:45:39.777Z,5.55
2022-11-05T21:48:07.406Z,5.88
2022-11-05T21:50:52.433Z,5.68
2022-11-05T21:53:37.244Z,4.90
2022-11-05T21:56:24.172Z,4.95
2022-11-05T21:59:10.545Z,4.70
2022-11-05T22:01:38.032Z,4.10
2022-11-05T22:04:05.632Z,4.38
2022-11-05T22:06:34.341Z,4.65
2022-11-05T22:09:01.670Z,5.80
2022-11-05T22:11:29.054Z,6.13
2022-11-05T22:13:57.780Z,5.07
2022-11-05T22:16:25.216Z,5.22
2022-11-05T22:18:52.595Z,5.72
2022-11-05T22:21:19.997Z,4.72
2022-11-05T22:23:47.364Z,5.38
2022-11-05T22:26:14.759Z,4.43
2022-11-05T22:28:42.132Z,4.97
2022-11-05T22:31:14.147Z,6.03
2022-11-05T22:33:41.622Z,5.15
2022-11-05T22:36:09.644Z,5.20
2022-11-05T22:38:37.122Z,4.93
2022-11-05T22:41:07.764Z,5.38
2022-11-05T22:43:35.093Z,5.50
2022-11-05T22:46:04.625Z,4.63
2022-11-05T22:48:33.345Z,4.93
2022-11-05T22:51:03.377Z,5.45
2022-11-05T22:53:30.936Z,4.38
2022-11-05T22:55:58.340Z,4.63
2022-11-05T22:58:25.713Z,5.70
2022-11-05T23:00:53.055Z,5.00
2022-11-05T23:03:20.471Z,5.40
2022-11-05T23:05:56.716Z,4.53
2022-11-05T23:08:41.437Z,4.72
2022-11-05T23:11:36.666Z,5.03
2022-11-05T23:14:04.039Z,7.20
2022-11-05T23:16:49.010Z,7.13
2022-11-05T23:19:33.696Z,7.90
2022-11-05T23:22:19.764Z,6.25
2022-11-05T23:24:48.060Z,8.77
2022-11-05T23:27:15.384Z,7.00
2022-11-05T23:29:42.768Z,6.65
2022-11-05T23:32:25.136Z,6.10
2022-11-05T23:34:52.834Z,4.47
2022-11-05T23:37:40.058Z,4.20
2022-11-05T23:40:09.039Z,4.53
2022-11-05T23:42:54.156Z,4.97
2022-11-05T23:45:39.082Z,5.18
2022-11-05T23:48:18.753Z,4.60
2022-11-05T23:50:47.755Z,4.20
2022-11-05T23:53:16.470Z,3.97
2022-11-05T23:55:44.320Z,3.97
2022-11-05T23:58:12.414Z,4.18
